Time;durP1;ratioP1;P1;durP2;ratioP2;P2;SDS_P1;SDS_P2;PMS_P1;PMS_P2;Temp;Humidity;BMP_temperature;BMP_pressure;BME280_temperature;BME280_humidity;BME280_pressure;Samples;Min_cycle;Max_cycle;Signal;HPM_P1;HPM_P2
2022/04/03 00:01:38;;;;;;;2.75;1.20;;;;;;;-3.91;71.23;101452.81;6048265;28;20065;-69
2022/04/03 00:04:34;;;;;;;4.65;1.08;;;;;;;-3.76;71.01;101452.47;6050029;28;20084;-69
2022/04/03 00:07:29;;;;;;;2.00;0.80;;;;;;;-3.87;70.81;101454.47;6049218;28;20099;-69
2022/04/03 00:10:25;;;;;;;4.03;1.50;;;;;;;-3.91;70.95;101449.38;6057341;28;20394;-69
2022/04/03 00:13:20;;;;;;;4.63;1.55;;;;;;;-3.92;71.64;101461.50;6049091;28;20034;-68
2022/04/03 00:16:15;;;;;;;2.27;1.20;;;;;;;-3.93;71.83;101452.00;6049156;28;20030;-68
2022/04/03 00:19:10;;;;;;;3.60;1.43;;;;;;;-3.97;71.64;101458.16;6049667;28;20030;-68
2022/04/03 00:22:06;;;;;;;4.10;1.53;;;;;;;-3.97;71.50;101452.13;6048417;28;20037;-68
2022/04/03 00:25:01;;;;;;;3.00;1.50;;;;;;;-4.07;72.31;101467.00;6049430;28;20457;-69
2022/04/03 00:27:57;;;;;;;3.63;1.00;;;;;;;-4.12;72.02;101455.91;6048781;28;20042;-68
2022/04/03 00:30:52;;;;;;;4.23;1.47;;;;;;;-4.19;72.07;101462.13;6048284;28;20400;-69
2022/04/03 00:33:47;;;;;;;1.87;0.97;;;;;;;-4.21;72.18;101450.94;6048978;28;20492;-69
2022/04/03 00:36:42;;;;;;;3.40;1.17;;;;;;;-4.26;72.97;101458.81;6048760;28;20045;-69
2022/04/03 00:39:38;;;;;;;2.90;1.03;;;;;;;-4.31;72.60;101462.41;6049578;28;20037;-68
2022/04/03 00:42:36;;;;;;;2.00;1.17;;;;;;;-4.25;72.61;101457.09;6047851;28;20431;-67
2022/04/03 00:45:31;;;;;;;2.22;0.88;;;;;;;-4.29;72.46;101465.78;6049129;28;20092;-67
2022/04/03 00:48:27;;;;;;;5.67;1.20;;;;;;;-4.17;72.12;101455.19;6049452;28;20084;-67
2022/04/03 00:51:22;;;;;;;2.78;1.20;;;;;;;-4.07;71.13;101461.84;6053052;28;20021;-66
2022/04/03 00:54:18;;;;;;;2.20;1.10;;;;;;;-4.09;71.89;101462.75;6053180;28;20042;-66
2022/04/03 00:57:14;;;;;;;4.03;1.07;;;;;;;-4.19;72.51;101467.31;6053375;28;20519;-66
2022/04/03 01:00:12;;;;;;;2.15;1.08;;;;;;;-4.17;72.76;101460.34;6052401;28;20477;-66
2022/04/03 01:03:08;;;;;;;3.05;1.00;;;;;;;-4.15;72.24;101455.13;6053149;28;20543;-66
2022/04/03 01:06:03;;;;;;;2.38;1.13;;;;;;;-4.26;72.90;101450.19;6052176;28;20061;-66
2022/04/03 01:08:58;;;;;;;1.52;0.90;;;;;;;-4.26;72.50;101465.72;6053020;28;20124;-66
2022/04/03 01:11:54;;;;;;;2.13;1.17;;;;;;;-4.15;72.03;101452.53;6050840;28;20161;-66
2022/04/03 01:14:49;;;;;;;3.10;1.10;;;;;;;-3.93;71.40;101446.84;6052690;28;20311;-65
2022/04/03 01:17:45;;;;;;;6.27;1.37;;;;;;;-4.00;70.84;101447.88;6052697;28;20512;-66
2022/04/03 01:20:40;;;;;;;2.47;1.08;;;;;;;-4.04;70.93;101445.38;6052318;28;20510;-65
2022/04/03 01:23:36;;;;;;;4.67;1.03;;;;;;;-4.04;70.14;101446.22;6052632;28;20160;-66
2022/04/03 01:26:31;;;;;;;2.45;1.27;;;;;;;-4.06;69.70;101452.34;6052691;28;20034;-66
2022/04/03 01:29:27;;;;;;;2.57;1.00;;;;;;;-4.09;69.66;101449.81;6052872;28;20038;-66
2022/04/03 01:32:22;;;;;;;2.63;1.20;;;;;;;-4.01;68.78;101443.56;6051732;28;20022;-65
2022/04/03 01:35:17;;;;;;;3.87;1.20;;;;;;;-4.02;67.86;101449.63;6054182;28;20054;-66
2022/04/03 01:38:13;;;;;;;2.93;1.17;;;;;;;-3.90;66.46;101444.16;6052560;28;20026;-65
2022/04/03 01:41:08;;;;;;;4.03;1.00;;;;;;;-3.94;65.60;101444.28;6052075;28;20072;-65
2022/04/03 01:44:05;;;;;;;3.50;1.00;;;;;;;-3.94;65.92;101437.34;6052312;28;20118;-65
2022/04/03 01:47:00;;;;;;;3.40;1.05;;;;;;;-3.88;65.69;101437.22;6052064;28;20034;-65
2022/04/03 01:49:55;;;;;;;2.07;0.90;;;;;;;-4.00;65.83;101436.66;6045051;28;20074;-65
2022/04/03 01:52:50;;;;;;;2.50;0.90;;;;;;;-4.03;65.50;101428.97;6051654;28;20289;-65
2022/04/03 01:55:57;;;;;;;2.60;1.10;;;;;;;-3.87;65.83;101430.28;6051996;28;20033;-65
2022/04/03 01:58:52;;;;;;;2.80;0.90;;;;;;;-3.89;66.10;101424.31;6052310;28;20029;-65
2022/04/03 02:01:48;;;;;;;3.67;0.90;;;;;;;-3.94;66.28;101434.75;6050580;28;20073;-65
2022/04/03 02:04:45;;;;;;;3.03;1.10;;;;;;;-4.16;66.48;101438.78;6051303;28;20042;-65
2022/04/03 02:07:41;;;;;;;2.75;1.00;;;;;;;-4.06;67.98;101427.31;6052228;28;20053;-65
2022/04/03 02:10:36;;;;;;;2.60;1.40;;;;;;;-3.83;68.57;101435.34;6050937;28;20057;-65
2022/04/03 02:13:31;;;;;;;1.97;0.77;;;;;;;-3.97;68.93;101426.22;6040085;28;20067;-65
2022/04/03 02:16:27;;;;;;;3.30;1.10;;;;;;;-4.20;69.01;101424.19;6051988;28;20771;-65
2022/04/03 02:19:22;;;;;;;2.87;1.00;;;;;;;-4.25;69.27;101432.06;6051244;28;20125;-65
2022/04/03 02:22:18;;;;;;;2.70;1.00;;;;;;;-4.37;69.25;101431.47;6050541;28;21465;-65
2022/04/03 02:25:14;;;;;;;1.83;1.00;;;;;;;-4.60;69.92;101434.59;6051725;28;20045;-65
2022/04/03 02:28:12;;;;;;;5.22;1.30;;;;;;;-4.72;70.14;101429.66;6051351;28;20030;-65
2022/04/03 02:31:07;;;;;;;2.28;0.90;;;;;;;-4.68;70.31;101430.47;6050456;28;20036;-65
2022/04/03 02:34:04;;;;;;;3.83;1.43;;;;;;;-4.59;71.89;101440.63;6049443;28;20392;-65
2022/04/03 02:36:59;;;;;;;4.80;1.13;;;;;;;-4.03;73.11;101431.56;6051055;28;20038;-65
2022/04/03 02:39:55;;;;;;;2.23;1.17;;;;;;;-4.26;72.03;101439.84;6051170;28;20053;-65
2022/04/03 02:42:52;;;;;;;5.77;1.10;;;;;;;-4.02;71.30;101433.28;6049971;28;20041;-65
2022/04/03 02:45:47;;;;;;;2.42;1.05;;;;;;;-3.93;71.41;101436.47;6050883;28;20089;-65
2022/04/03 02:48:42;;;;;;;2.00;1.00;;;;;;;-4.14;71.12;101436.13;6051420;28;20057;-65
2022/04/03 02:51:38;;;;;;;3.40;1.23;;;;;;;-3.75;72.81;101427.41;6050315;28;20033;-65
2022/04/03 02:54:33;;;;;;;2.70;1.20;;;;;;;-3.66;72.73;101430.59;6049952;28;20103;-65
2022/04/03 02:57:28;;;;;;;3.17;1.58;;;;;;;-3.50;72.12;101431.06;6051246;28;20421;-65
2022/04/03 03:00:24;;;;;;;2.30;1.10;;;;;;;-3.70;73.03;101429.00;6049810;28;20056;-65
2022/04/03 03:03:19;;;;;;;5.13;1.70;;;;;;;-3.64;72.97;101426.22;6051145;28;20045;-65
2022/04/03 03:06:14;;;;;;;4.07;1.30;;;;;;;-3.96;73.11;101439.13;6050594;28;20054;-65
2022/04/03 03:09:10;;;;;;;2.17;1.07;;;;;;;-3.94;73.13;101436.53;6049648;28;20080;-65
2022/04/03 03:12:06;;;;;;;3.57;1.33;;;;;;;-4.08;73.64;101433.41;6047895;28;20072;-65
2022/04/03 03:15:04;;;;;;;2.40;0.98;;;;;;;-4.42;73.37;101435.91;6050230;28;20026;-65
2022/04/03 03:17:59;;;;;;;1.77;1.08;;;;;;;-4.13;75.28;101432.66;6050675;28;20105;-65
2022/04/03 03:20:54;;;;;;;2.77;1.13;;;;;;;-3.98;74.71;101433.16;6049518;28;20051;-65
2022/04/03 03:23:49;;;;;;;3.43;1.20;;;;;;;-4.27;73.89;101433.81;6050193;28;20172;-65
2022/04/03 03:26:45;;;;;;;2.67;1.03;;;;;;;-4.57;74.17;101433.66;6051604;28;20273;-65
2022/04/03 03:29:40;;;;;;;3.30;1.23;;;;;;;-4.81;73.86;101435.88;6049941;28;20489;-65
2022/04/03 03:32:36;;;;;;;2.33;1.00;;;;;;;-5.08;73.41;101436.44;6049193;28;20033;-65
2022/04/03 03:35:33;;;;;;;2.58;1.02;;;;;;;-5.15;74.09;101434.88;6047418;28;20022;-65
2022/04/03 03:38:28;;;;;;;2.53;1.20;;;;;;;-5.18;74.49;101429.75;6049487;28;20022;-65
2022/04/03 03:41:24;;;;;;;3.00;1.20;;;;;;;-5.16;75.60;101433.16;6045409;28;20496;-65
2022/04/03 03:44:19;;;;;;;3.03;1.37;;;;;;;-4.86;76.86;101434.25;6049489;28;20432;-65
2022/04/03 03:47:14;;;;;;;7.47;1.50;;;;;;;-4.86;75.72;101435.13;6050248;28;20034;-65
2022/04/03 03:50:10;;;;;;;2.92;1.13;;;;;;;-4.65;76.88;101428.66;6048687;28;20087;-65
2022/04/03 03:53:05;;;;;;;1.83;1.07;;;;;;;-4.04;76.51;101435.88;6049529;28;20030;-65
2022/04/03 03:56:01;;;;;;;2.73;1.00;;;;;;;-3.68;75.01;101434.97;6049338;28;20238;-66
2022/04/03 03:58:56;;;;;;;4.38;1.15;;;;;;;-3.66;74.19;101428.00;6049556;28;20057;-65
2022/04/03 04:01:51;;;;;;;3.35;1.48;;;;;;;-3.35;73.44;101422.03;6048407;28;20374;-65
2022/04/03 04:04:47;;;;;;;3.23;0.97;;;;;;;-3.10;71.29;101428.25;6049534;28;20046;-65
2022/04/03 04:07:44;;;;;;;1.93;0.77;;;;;;;-3.03;72.25;101429.78;6049542;28;20277;-65
2022/04/03 04:10:39;;;;;;;3.75;1.30;;;;;;;-3.03;71.65;101432.38;6048721;28;20401;-65
2022/04/03 04:13:35;;;;;;;2.60;1.00;;;;;;;-3.15;69.80;101427.50;6049211;28;20041;-65
2022/04/03 04:16:30;;;;;;;5.15;1.52;;;;;;;-3.31;68.71;101428.81;6049839;28;20034;-65
2022/04/03 04:19:26;;;;;;;3.77;1.63;;;;;;;-3.06;69.99;101422.94;6048922;28;20014;-65
2022/04/03 04:22:21;;;;;;;4.13;1.30;;;;;;;-2.87;71.49;101428.44;6048361;28;20045;-65
2022/04/03 04:25:18;;;;;;;7.47;1.80;;;;;;;-3.01;68.93;101430.56;6052585;28;20087;-65
2022/04/03 04:28:14;;;;;;;3.40;1.30;;;;;;;-3.03;69.47;101428.03;6053823;28;20040;-66
2022/04/03 04:31:10;;;;;;;3.58;1.10;;;;;;;-2.93;70.68;101425.16;6053509;28;20034;-65
2022/04/03 04:34:05;;;;;;;6.55;1.58;;;;;;;-3.19;69.50;101429.38;6055202;28;20041;-65
2022/04/03 04:37:00;;;;;;;6.32;1.50;;;;;;;-3.55;69.91;101435.50;6053933;28;20111;-65
2022/04/03 04:39:56;;;;;;;2.40;1.10;;;;;;;-3.32;70.63;101427.13;6053052;28;20080;-65
2022/04/03 04:42:51;;;;;;;4.85;1.85;;;;;;;-3.44;71.48;101430.91;6053266;28;20400;-65
2022/04/03 04:45:47;;;;;;;4.17;1.50;;;;;;;-3.62;70.00;101414.09;6054059;28;20044;-65
2022/04/03 04:48:42;;;;;;;3.53;1.50;;;;;;;-3.52;70.42;101421.63;6053526;28;20465;-65
2022/04/03 04:51:37;;;;;;;4.63;2.07;;;;;;;-3.25;69.79;101418.28;6053164;28;20045;-66
2022/04/03 04:54:33;;;;;;;4.27;1.50;;;;;;;-3.24;69.63;101428.63;6053851;28;20034;-65
2022/04/03 04:57:28;;;;;;;4.63;1.67;;;;;;;-3.17;70.01;101431.91;6057406;28;20025;-65
2022/04/03 05:00:28;;;;;;;3.28;1.70;;;;;;;-3.17;70.17;101437.09;6052762;28;20400;-65
2022/04/03 05:03:24;;;;;;;4.28;1.80;;;;;;;-3.09;70.16;101433.41;6053427;28;20477;-65
2022/04/03 05:06:22;;;;;;;6.03;2.10;;;;;;;-2.87;70.56;101436.22;6053715;28;20049;-65
2022/04/03 05:09:18;;;;;;;3.42;1.52;;;;;;;-2.80;71.62;101421.34;6052152;28;20172;-65
2022/04/03 05:12:13;;;;;;;5.95;1.88;;;;;;;-2.84;69.98;101425.78;6051189;28;20041;-65
2022/04/03 05:15:13;;;;;;;4.17;1.70;;;;;;;-3.00;70.61;101434.88;6053492;28;20045;-65
2022/04/03 05:18:08;;;;;;;5.88;1.88;;;;;;;-3.01;71.93;101434.03;6053112;28;20032;-65
2022/04/03 05:21:04;;;;;;;4.97;1.90;;;;;;;-3.00;70.75;101442.66;6050978;28;20033;-65
2022/04/03 05:24:00;;;;;;;5.35;2.20;;;;;;;-3.15;71.76;101448.25;6052449;28;20164;-65
2022/04/03 05:26:55;;;;;;;4.83;1.87;;;;;;;-2.98;72.49;101440.88;6052741;28;20046;-65
2022/04/03 05:29:50;;;;;;;4.83;2.03;;;;;;;-2.93;72.00;101457.16;6053004;28;20046;-65
2022/04/03 05:32:46;;;;;;;5.17;1.87;;;;;;;-2.72;72.75;101451.38;6051835;28;20058;-65
2022/04/03 05:35:41;;;;;;;5.55;2.25;;;;;;;-2.62;72.18;101450.22;6052844;28;20041;-65
2022/04/03 05:38:37;;;;;;;6.85;1.60;;;;;;;-2.66;72.78;101448.59;6051839;28;20026;-65
2022/04/03 05:41:33;;;;;;;4.53;1.80;;;;;;;-2.64;71.96;101446.81;6050071;28;20121;-65
2022/04/03 05:44:28;;;;;;;5.75;2.28;;;;;;;-2.61;71.79;101449.28;6052412;28;20099;-65
2022/04/03 05:47:24;;;;;;;4.47;1.60;;;;;;;-2.67;71.90;101440.84;6055808;28;20041;-65
2022/04/03 05:50:19;;;;;;;4.63;1.87;;;;;;;-2.75;72.31;101446.28;6060371;28;20042;-65
2022/04/03 05:53:15;;;;;;;3.97;1.73;;;;;;;-2.81;72.15;101458.56;6068355;28;20072;-65
2022/04/03 05:56:10;;;;;;;5.10;2.17;;;;;;;-2.28;72.81;101452.63;6056848;28;20423;-65
2022/04/03 05:59:05;;;;;;;4.87;2.07;;;;;;;-2.29;72.03;101450.09;6052447;28;20030;-65
2022/04/03 06:02:01;;;;;;;8.40;2.53;;;;;;;-2.21;72.57;101453.31;6051451;28;20042;-65
2022/04/03 06:04:56;;;;;;;3.27;1.70;;;;;;;-1.67;71.59;101450.69;6052462;28;20080;-65
2022/04/03 06:07:52;;;;;;;5.28;2.10;;;;;;;-0.82;69.06;101458.97;6051887;28;20033;-65
2022/04/03 06:10:47;;;;;;;8.18;2.55;;;;;;;-0.81;68.31;101456.28;6049999;28;20458;-65
2022/04/03 06:13:43;;;;;;;4.90;2.07;;;;;;;-0.80;67.90;101447.59;6050553;28;20045;-64
2022/04/03 06:16:38;;;;;;;7.63;2.50;;;;;;;-0.63;67.32;101453.03;6051382;28;20682;-65
2022/04/03 06:19:33;;;;;;;4.37;1.97;;;;;;;-0.74;67.52;101451.72;6050753;28;20030;-65
2022/04/03 06:22:28;;;;;;;5.33;2.77;;;;;;;-0.68;66.97;101452.34;6049727;28;20029;-65
2022/04/03 06:25:24;;;;;;;8.03;2.50;;;;;;;-0.69;68.22;101444.59;6051302;28;20176;-65
2022/04/03 06:28:20;;;;;;;5.67;2.10;;;;;;;-0.30;66.15;101448.28;6051749;28;20030;-65
2022/04/03 06:31:15;;;;;;;6.05;2.42;;;;;;;-0.24;66.95;101448.03;6050204;28;20116;-65
2022/04/03 06:34:10;;;;;;;7.53;2.40;;;;;;;-0.14;67.04;101443.34;6047383;28;20041;-65
2022/04/03 06:37:06;;;;;;;5.80;2.30;;;;;;;0.07;66.28;101436.41;6043867;28;20033;-66
2022/04/03 06:40:02;;;;;;;5.60;2.50;;;;;;;0.27;66.11;101439.88;6050769;28;20064;-67
2022/04/03 06:42:58;;;;;;;5.47;2.50;;;;;;;0.45;65.72;101443.50;6050636;28;20034;-66
2022/04/03 06:45:53;;;;;;;3.85;2.22;;;;;;;0.66;65.02;101444.34;6050268;28;20087;-66
2022/04/03 06:48:49;;;;;;;5.85;3.10;;;;;;;0.59;65.84;101441.19;6050855;28;20560;-67
2022/04/03 06:51:44;;;;;;;6.70;2.50;;;;;;;0.93;64.85;101451.84;6050144;28;20044;-67
2022/04/03 06:54:39;;;;;;;5.57;2.60;;;;;;;1.12;64.63;101446.66;6051045;28;20056;-68
2022/04/03 06:57:35;;;;;;;7.47;2.83;;;;;;;1.06;64.24;101446.97;6050741;28;20029;-67
2022/04/03 07:00:30;;;;;;;8.20;3.15;;;;;;;1.21;63.86;101441.03;6049787;28;20038;-69
2022/04/03 07:03:27;;;;;;;5.88;2.60;;;;;;;1.45;63.54;101449.53;6050274;28;20030;-68
2022/04/03 07:06:23;;;;;;;6.25;2.67;;;;;;;1.41;63.23;101446.22;6048965;28;20070;-67
2022/04/03 07:09:18;;;;;;;4.73;2.00;;;;;;;1.58;62.66;101442.81;6049757;28;20033;-69
2022/04/03 07:12:14;;;;;;;6.17;2.77;;;;;;;1.52;62.97;101445.72;6050237;28;20030;-67
2022/04/03 07:15:12;;;;;;;9.02;3.00;;;;;;;1.45;64.19;101439.06;6049764;28;20037;-66
2022/04/03 07:18:10;;;;;;;8.70;2.88;;;;;;;1.67;62.99;101442.38;6049812;28;20117;-69
2022/04/03 07:21:05;;;;;;;5.53;2.55;;;;;;;1.83;62.86;101445.97;6049357;28;20473;-68
2022/04/03 07:24:00;;;;;;;6.23;2.77;;;;;;;2.29;62.28;101447.22;6047432;28;20049;-69
2022/04/03 07:26:56;;;;;;;5.47;2.73;;;;;;;2.29;62.46;101442.84;6050282;28;20037;-68
2022/04/03 07:29:51;;;;;;;7.40;3.05;;;;;;;2.18;62.82;101434.66;6049859;28;20284;-68
2022/04/03 07:32:46;;;;;;;5.83;2.50;;;;;;;2.45;62.77;101445.53;6049911;28;20045;-69
2022/04/03 07:35:42;;;;;;;8.77;3.10;;;;;;;2.64;62.22;101441.06;6052520;28;20029;-70
2022/04/03 07:38:37;;;;;;;5.72;2.92;;;;;;;3.00;61.50;101433.09;6050168;28;20052;-70
2022/04/03 07:41:33;;;;;;;5.13;2.60;;;;;;;3.11;61.20;101441.25;6049459;28;20030;-69
2022/04/03 07:44:28;;;;;;;9.90;3.00;;;;;;;3.09;61.81;101440.47;6049744;28;20033;-69
2022/04/03 07:47:23;;;;;;;7.50;2.93;;;;;;;3.13;61.93;101434.13;6050137;28;20087;-69
2022/04/03 07:50:19;;;;;;;6.10;2.55;;;;;;;3.34;61.43;101432.16;6048920;28;20931;-69
2022/04/03 07:53:14;;;;;;;5.30;2.35;;;;;;;3.45;61.03;101441.13;6049565;28;20040;-69
2022/04/03 07:56:10;;;;;;;5.67;2.70;;;;;;;3.59;60.53;101438.59;6049780;28;20029;-70
2022/04/03 07:59:06;;;;;;;5.82;2.50;;;;;;;3.75;60.77;101438.59;6048431;28;20065;-69
2022/04/03 08:02:02;;;;;;;6.05;2.40;;;;;;;3.91;59.97;101434.22;6048278;28;20045;-70
2022/04/03 08:04:57;;;;;;;7.25;2.88;;;;;;;4.09;59.63;101433.16;6049651;28;20030;-70
2022/04/03 08:07:55;;;;;;;4.70;2.23;;;;;;;4.27;58.52;101433.88;6049508;28;20116;-70
2022/04/03 08:10:51;;;;;;;7.55;3.08;;;;;;;4.27;58.66;101435.69;6048147;28;20041;-70
2022/04/03 08:13:47;;;;;;;6.83;2.77;;;;;;;4.46;58.20;101431.03;6049162;28;20500;-70
2022/04/03 08:16:43;;;;;;;9.60;2.55;;;;;;;4.44;58.00;101432.91;6049578;28;20632;-68
2022/04/03 08:19:38;;;;;;;5.93;2.70;;;;;;;4.53;57.13;101427.13;6048376;28;20036;-69
2022/04/03 08:22:33;;;;;;;5.13;2.13;;;;;;;4.72;57.09;101430.38;6048114;28;20285;-69
2022/04/03 08:25:32;;;;;;;4.83;2.27;;;;;;;4.78;56.41;101430.81;6049104;28;20041;-69
2022/04/03 08:28:28;;;;;;;5.15;1.98;;;;;;;4.81;56.05;101428.03;6048993;28;20030;-67
2022/04/03 08:31:24;;;;;;;4.75;1.80;;;;;;;4.59;55.96;101427.59;6048846;28;20048;-69
2022/04/03 08:34:19;;;;;;;5.93;1.95;;;;;;;4.65;56.18;101427.25;6043848;28;20027;-68
2022/04/03 08:37:14;;;;;;;4.63;1.53;;;;;;;4.63;56.95;101421.25;6044662;28;20576;-69
2022/04/03 08:40:12;;;;;;;4.40;1.77;;;;;;;4.99;55.98;101417.34;6048207;28;20026;-70
2022/04/03 08:43:07;;;;;;;7.07;2.28;;;;;;;5.38;55.36;101433.31;6049599;28;20074;-69
2022/04/03 08:46:06;;;;;;;5.63;1.50;;;;;;;5.66;54.73;101425.38;6048646;28;20439;-69
2022/04/03 08:49:01;;;;;;;4.40;1.30;;;;;;;5.50;53.89;101422.00;6049267;28;20315;-69
2022/04/03 08:51:57;;;;;;;4.95;1.33;;;;;;;5.13;55.71;101439.25;6048699;28;20038;-69
2022/04/03 08:54:52;;;;;;;8.10;1.50;;;;;;;4.93;55.57;101436.97;6063939;28;20844;-70
2022/04/03 08:57:48;;;;;;;5.00;1.77;;;;;;;4.58;55.80;101431.19;6049298;28;20034;-68
2022/04/03 09:00:44;;;;;;;3.63;1.20;;;;;;;4.55;56.81;101436.59;6048594;28;20030;-69
2022/04/03 09:03:39;;;;;;;3.97;1.40;;;;;;;4.48;56.84;101422.16;6048995;28;20095;-69
2022/04/03 09:06:34;;;;;;;7.37;1.73;;;;;;;4.72;55.93;101428.59;6049367;28;20481;-69
2022/04/03 09:09:30;;;;;;;6.75;1.70;;;;;;;4.93;54.91;101425.59;6049070;28;20041;-69
2022/04/03 09:12:26;;;;;;;2.63;1.30;;;;;;;5.30;54.43;101410.09;6052662;28;20038;-69
2022/04/03 09:15:22;;;;;;;2.88;1.30;;;;;;;5.55;54.47;101417.31;6053326;28;20049;-70
2022/04/03 09:18:18;;;;;;;3.55;1.27;;;;;;;5.82;53.53;101412.91;6053053;28;20049;-71
2022/04/03 09:21:23;;;;;;;4.30;1.20;;;;;;;6.07;53.02;101411.38;6052272;28;20516;-70
2022/04/03 09:24:19;;;;;;;4.32;1.50;;;;;;;6.54;52.52;101407.28;6052759;28;20343;-69
2022/04/03 09:27:15;;;;;;;3.25;1.40;;;;;;;6.30;51.19;101408.06;6053243;28;20381;-71
2022/04/03 09:30:10;;;;;;;4.15;1.50;;;;;;;6.42;51.47;101397.56;6052115;28;20038;-72
2022/04/03 09:33:08;;;;;;;4.60;1.33;;;;;;;5.86;52.62;101403.94;6053168;28;20370;-72
2022/04/03 09:36:04;;;;;;;3.40;1.33;;;;;;;5.58;52.97;101413.63;6052559;28;20504;-70
2022/04/03 09:39:14;;;;;;;4.25;1.45;;;;;;;5.39;53.75;101408.69;6052518;28;20034;-71
2022/04/03 09:42:11;;;;;;;2.65;1.27;;;;;;;5.46;54.06;101402.13;6052217;28;20038;-71
2022/04/03 09:45:07;;;;;;;4.13;1.20;;;;;;;5.52;53.50;101398.25;6052505;28;20477;-68
2022/04/03 09:48:18;;;;;;;2.33;1.08;;;;;;;5.30;55.48;101404.00;6051313;28;20113;-69
2022/04/03 09:51:19;;;;;;;3.08;1.30;;;;;;;5.19;55.85;101406.47;6056842;28;20124;-69
2022/04/03 09:54:19;;;;;;;3.58;1.40;;;;;;;5.07;55.03;101404.59;6052695;28;20042;-67
2022/04/03 09:57:26;;;;;;;3.33;1.23;;;;;;;5.19;54.16;101401.22;6052353;28;20433;-73
2022/04/03 10:00:29;;;;;;;7.50;1.48;;;;;;;5.34;55.23;101392.34;6051520;28;20479;-69
2022/04/03 10:03:24;;;;;;;2.80;1.23;;;;;;;5.07;54.56;101394.91;6049853;28;20042;-68
2022/04/03 10:06:20;;;;;;;1.97;0.60;;;;;;;5.08;53.03;101393.16;6052170;28;20088;-68
2022/04/03 10:09:16;;;;;;;1.58;0.77;;;;;;;5.01;53.08;101390.03;6052126;28;20084;-69
2022/04/03 10:12:15;;;;;;;3.17;1.20;;;;;;;4.74;54.98;101391.72;6042234;28;20093;-69
2022/04/03 10:15:10;;;;;;;1.90;0.75;;;;;;;4.66;55.28;101392.16;6051884;28;20036;-69
2022/04/03 10:18:06;;;;;;;2.90;1.13;;;;;;;4.50;55.94;101380.88;6051541;28;20073;-71
2022/04/03 10:21:02;;;;;;;2.95;0.98;;;;;;;4.50;56.02;101390.53;6050177;28;20061;-68
2022/04/03 10:24:07;;;;;;;2.75;1.02;;;;;;;4.48;56.95;101377.53;6051521;28;20038;-70
2022/04/03 10:27:07;;;;;;;2.65;1.10;;;;;;;4.54;57.05;101386.81;6049406;28;20398;-70
2022/04/03 10:30:02;;;;;;;4.20;0.77;;;;;;;4.62;56.45;101388.03;6047283;28;20121;-69
2022/04/03 10:32:59;;;;;;;1.83;0.82;;;;;;;4.63;56.38;101387.09;6048698;28;20529;-71
2022/04/03 10:36:13;;;;;;;2.88;0.93;;;;;;;4.65;55.63;101385.22;6051437;28;20037;-69
2022/04/03 10:39:08;;;;;;;3.40;0.98;;;;;;;4.64;57.22;101383.53;6046269;28;20026;-70
2022/04/03 10:42:20;;;;;;;1.58;0.88;;;;;;;4.74;57.32;101381.19;6048937;28;20042;-70
2022/04/03 10:45:18;;;;;;;3.15;1.00;;;;;;;4.77;56.65;101373.13;6050832;28;20128;-71
2022/04/03 10:48:19;;;;;;;2.80;0.90;;;;;;;5.05;56.67;101380.19;6043104;28;20120;-69
2022/04/03 10:51:30;;;;;;;2.08;0.90;;;;;;;5.32;56.14;101371.44;6039870;28;20034;-70
2022/04/03 10:54:32;;;;;;;2.95;0.88;;;;;;;5.55;54.04;101367.31;6050828;28;20038;-71
2022/04/03 10:58:03;;;;;;;3.05;0.80;;;;;;;5.89;52.71;101366.88;6049845;28;20042;-71
2022/04/03 11:01:03;;;;;;;2.72;0.80;;;;;;;6.17;51.58;101354.53;6049922;28;20049;-70
2022/04/03 11:04:21;;;;;;;7.07;0.90;;;;;;;5.99;51.51;101349.53;6050104;28;20515;-71
2022/04/03 11:07:17;;;;;;;2.17;1.05;;;;;;;6.05;52.22;101342.19;6049988;28;20038;-70
2022/04/03 11:10:12;;;;;;;3.45;1.10;;;;;;;6.42;51.93;101344.88;6049348;28;20038;-71
2022/04/03 11:13:08;;;;;;;6.03;1.30;;;;;;;6.96;51.84;101332.31;6048896;28;20041;-69
2022/04/03 11:16:09;;;;;;;2.47;1.02;;;;;;;7.58;50.76;101321.72;6049641;28;20370;-71
2022/04/03 11:19:04;;;;;;;2.60;1.02;;;;;;;7.60;49.95;101319.78;6050369;28;20492;-70
2022/04/03 11:21:59;;;;;;;1.70;0.83;;;;;;;6.86;49.79;101333.91;6049244;28;20034;-70
2022/04/03 11:24:55;;;;;;;1.60;0.80;;;;;;;6.35;51.73;101332.22;6050448;28;20665;-69
2022/04/03 11:27:50;;;;;;;1.67;0.83;;;;;;;5.80;54.48;101345.53;6050397;28;20037;-69
2022/04/03 11:30:46;;;;;;;2.45;0.93;;;;;;;5.28;58.00;101335.75;6049475;28;20265;-70
2022/04/03 11:33:41;;;;;;;3.40;1.23;;;;;;;4.66;63.58;101342.28;6050164;28;20042;-70
2022/04/03 11:36:36;;;;;;;3.95;1.27;;;;;;;4.47;64.99;101339.06;6050106;28;20041;-71
2022/04/03 11:39:37;;;;;;;2.70;1.17;;;;;;;4.32;66.40;101344.38;6049716;28;20114;-70
2022/04/03 11:42:32;;;;;;;2.78;1.05;;;;;;;4.12;68.10;101342.91;6049575;28;20042;-69
2022/04/03 11:45:28;;;;;;;4.90;1.40;;;;;;;4.25;68.58;101336.00;6049319;28;20504;-69
2022/04/03 11:48:26;;;;;;;2.58;1.17;;;;;;;4.54;68.86;101329.88;6049805;28;20080;-71
2022/04/03 11:51:22;;;;;;;4.07;1.42;;;;;;;4.91;67.01;101331.09;6048250;28;20160;-69
2022/04/03 11:54:17;;;;;;;2.40;1.23;;;;;;;5.14;65.68;101327.03;6049257;28;20025;-71
2022/04/03 11:57:13;;;;;;;2.57;1.40;;;;;;;5.14;64.22;101312.09;6049568;28;20042;-70
2022/04/03 12:00:09;;;;;;;2.80;1.13;;;;;;;5.33;63.47;101324.91;6047012;28;20049;-70
2022/04/03 12:03:07;;;;;;;3.60;1.55;;;;;;;5.24;62.73;101325.53;6049776;28;20026;-70
2022/04/03 12:06:09;;;;;;;1.98;1.17;;;;;;;5.10;63.92;101315.03;6049784;28;20041;-70
2022/04/03 12:09:09;;;;;;;3.53;1.33;;;;;;;4.92;63.89;101306.50;6049654;28;20473;-71
2022/04/03 12:12:04;;;;;;;3.75;1.42;;;;;;;4.86;64.43;101306.06;6060677;28;20042;-70
2022/04/03 12:15:01;;;;;;;6.00;1.23;;;;;;;4.69;64.03;101307.09;6073264;28;20025;-70
2022/04/03 12:17:57;;;;;;;4.00;1.52;;;;;;;4.52;65.23;101308.09;6073484;28;20120;-70
2022/04/03 12:20:52;;;;;;;2.30;1.20;;;;;;;4.37;66.50;101305.56;6072490;28;20156;-72
2022/04/03 12:24:06;;;;;;;2.75;1.30;;;;;;;4.22;69.21;101302.91;6073438;28;20137;-71
2022/04/03 12:27:22;;;;;;;4.43;1.42;;;;;;;4.52;70.16;101297.59;6072894;28;20041;-70
2022/04/03 12:30:18;;;;;;;4.95;1.23;;;;;;;4.95;67.31;101281.81;6072720;28;20034;-71
2022/04/03 12:33:13;;;;;;;5.38;1.45;;;;;;;5.04;65.86;101283.88;6072584;28;20042;-71
2022/04/03 12:36:09;;;;;;;2.57;1.43;;;;;;;5.05;64.17;101275.91;6072305;28;20429;-68
2022/04/03 12:39:04;;;;;;;5.28;1.35;;;;;;;5.06;64.73;101274.09;6072492;28;20290;-68
2022/04/03 12:42:19;;;;;;;3.58;1.10;;;;;;;4.94;64.33;101277.50;6071392;28;20616;-70
2022/04/03 12:45:17;;;;;;;5.90;1.23;;;;;;;5.04;64.39;101271.59;6074983;28;20121;-70
2022/04/03 12:48:15;;;;;;;4.28;1.30;;;;;;;5.10;65.24;101262.47;6077293;28;20037;-70
2022/04/03 12:51:11;;;;;;;3.53;1.25;;;;;;;5.32;64.98;101260.16;6077194;28;20476;-70
2022/04/03 12:54:06;;;;;;;3.38;1.17;;;;;;;5.37;62.02;101263.31;6076108;28;20064;-69
2022/04/03 13:00:19;;;;;;;1.42;0.93;;;;;;;5.32;62.91;101250.47;6082170;28;20018;-70
2022/04/03 13:03:24;;;;;;;2.95;1.10;;;;;;;5.31;61.34;101254.03;6077270;28;20036;-69
2022/04/03 13:06:30;;;;;;;1.88;1.20;;;;;;;5.22;61.73;101241.47;6077748;28;20061;-71
2022/04/03 13:09:25;;;;;;;1.98;1.10;;;;;;;5.41;62.35;101249.00;6076856;28;20029;-70
2022/04/03 13:12:28;;;;;;;3.23;1.17;;;;;;;5.40;61.58;101237.69;6076844;28;20099;-70
2022/04/03 13:15:23;;;;;;;5.78;1.33;;;;;;;5.32;61.13;101249.63;6076446;28;20283;-69
2022/04/03 13:18:20;;;;;;;2.47;1.30;;;;;;;5.26;61.93;101242.13;6077358;28;20457;-70
2022/04/03 13:21:20;;;;;;;5.13;1.60;;;;;;;5.18;63.28;101252.31;6075856;28;20354;-71
2022/04/03 13:24:15;;;;;;;1.83;1.20;;;;;;;4.85;65.39;101254.44;6077144;28;20473;-68
2022/04/03 13:27:11;;;;;;;3.13;1.10;;;;;;;4.70;67.67;101257.06;6075891;28;20037;-70
2022/04/03 13:30:06;;;;;;;4.77;2.17;;;;;;;4.38;70.17;101254.75;6075783;28;20036;-70
2022/04/03 13:33:02;;;;;;;2.63;1.52;;;;;;;3.95;73.30;101249.44;6076745;28;20068;-69
2022/04/03 13:35:57;;;;;;;2.05;1.20;;;;;;;3.72;73.89;101249.13;6079022;28;20037;-71
2022/04/03 13:38:53;;;;;;;3.70;1.30;;;;;;;3.69;76.15;101249.28;6076594;28;20032;-71
2022/04/03 13:41:48;;;;;;;2.25;1.27;;;;;;;3.65;77.10;101253.88;6076094;28;20109;-72
2022/04/03 13:44:44;;;;;;;3.25;1.55;;;;;;;4.16;77.57;101237.66;6076552;28;20121;-69
2022/04/03 13:47:39;;;;;;;3.97;2.13;;;;;;;4.53;75.82;101236.28;6076329;28;20037;-71
2022/04/03 13:50:35;;;;;;;5.27;2.00;;;;;;;5.12;74.06;101226.41;6075751;28;20619;-71